createdAt,value
2022-08-24T00:01:58.673Z,2.60
2022-08-24T00:04:02.645Z,2.60
2022-08-24T00:06:10.024Z,2.93
2022-08-24T00:08:13.441Z,2.93
2022-08-24T00:10:17.457Z,2.63
2022-08-24T00:12:21.016Z,3.17
2022-08-24T00:14:24.597Z,3.23
2022-08-24T00:16:29.361Z,2.80
2022-08-24T00:18:34.593Z,2.97
2022-08-24T00:20:43.285Z,2.70
2022-08-24T00:22:48.555Z,2.67
2022-08-24T00:24:53.926Z,2.60
2022-08-24T00:26:57.430Z,2.53
2022-08-24T00:29:06.806Z,2.47
2022-08-24T00:31:11.602Z,2.83
2022-08-24T00:33:15.141Z,2.60
2022-08-24T00:35:20.324Z,2.70
2022-08-24T00:37:24.155Z,3.20
2022-08-24T00:39:27.574Z,2.80
2022-08-24T00:41:32.664Z,3.57
2022-08-24T00:43:36.606Z,3.03
2022-08-24T00:45:45.872Z,3.23
2022-08-24T00:47:55.007Z,3.17
2022-08-24T00:50:01.851Z,3.00
2022-08-24T00:52:13.345Z,3.10
2022-08-24T00:54:19.902Z,3.30
2022-08-24T00:56:27.874Z,3.20
2022-08-24T00:58:40.135Z,3.37
2022-08-24T01:00:48.620Z,3.70
2022-08-24T01:02:55.352Z,3.17
2022-08-24T01:05:01.811Z,2.93
2022-08-24T01:07:07.057Z,3.30
2022-08-24T01:09:10.494Z,3.27
2022-08-24T01:11:21.837Z,2.90
2022-08-24T01:13:26.140Z,2.60
2022-08-24T01:15:30.181Z,2.90
2022-08-24T01:17:51.596Z,3.27
2022-08-24T01:19:58.522Z,3.43
2022-08-24T01:22:27.024Z,3.63
2022-08-24T01:24:31.987Z,3.10
2022-08-24T01:26:38.215Z,4.10
2022-08-24T01:28:45.071Z,4.33
2022-08-24T01:30:48.599Z,3.60
2022-08-24T01:32:56.112Z,2.73
2022-08-24T01:34:59.731Z,3.37
2022-08-24T01:37:04.477Z,3.50
2022-08-24T01:39:13.440Z,2.83
2022-08-24T01:41:18.302Z,3.00
2022-08-24T01:43:22.499Z,2.83
2022-08-24T01:45:28.462Z,3.43
2022-08-24T01:47:32.189Z,4.20
2022-08-24T01:49:38.215Z,3.10
2022-08-24T01:51:42.532Z,3.30
2022-08-24T01:53:46.795Z,3.63
2022-08-24T01:55:50.218Z,3.43
2022-08-24T01:57:56.008Z,3.87
2022-08-24T01:59:59.436Z,3.67
2022-08-24T02:02:10.544Z,3.87
2022-08-24T02:04:17.609Z,4.23
2022-08-24T02:06:24.297Z,3.57
2022-08-24T02:08:32.243Z,3.43
2022-08-24T02:10:36.237Z,4.20
2022-08-24T02:12:43.038Z,3.67
2022-08-24T02:14:48.437Z,3.10
2022-08-24T02:16:52.112Z,4.37
2022-08-24T02:19:02.717Z,3.20
2022-08-24T02:21:06.360Z,2.60
2022-08-24T02:23:09.859Z,3.70
2022-08-24T02:25:14.119Z,3.50
2022-08-24T02:27:18.020Z,3.53
2022-08-24T02:29:21.492Z,3.67
2022-08-24T02:31:26.657Z,3.57
2022-08-24T02:33:30.262Z,3.20
2022-08-24T02:35:33.846Z,3.40
2022-08-24T02:37:43.267Z,3.30
2022-08-24T02:39:49.703Z,3.77
2022-08-24T02:41:55.544Z,3.57
2022-08-24T02:43:59.627Z,3.13
2022-08-24T02:46:03.299Z,3.50
2022-08-24T02:48:10.527Z,3.33
2022-08-24T02:50:16.106Z,3.10
2022-08-24T02:52:20.975Z,2.93
2022-08-24T02:54:28.356Z,3.40
2022-08-24T02:56:32.177Z,3.43
2022-08-24T02:58:36.019Z,3.30
2022-08-24T03:00:43.951Z,3.10
2022-08-24T03:02:47.430Z,3.50
2022-08-24T03:04:53.252Z,3.50
2022-08-24T03:06:56.764Z,3.77
2022-08-24T03:09:00.292Z,3.53
2022-08-24T03:11:04.508Z,4.30
2022-08-24T03:13:08.019Z,3.70
2022-08-24T03:15:12.876Z,3.30
2022-08-24T03:17:17.013Z,3.10
2022-08-24T03:19:22.156Z,4.50
2022-08-24T03:21:27.843Z,2.90
2022-08-24T03:23:34.338Z,3.10
2022-08-24T03:25:38.471Z,3.67
2022-08-24T03:27:42.349Z,3.53
2022-08-24T03:29:46.652Z,3.80
2022-08-24T03:31:52.922Z,3.43
2022-08-24T03:33:56.486Z,3.40
2022-08-24T03:36:00.068Z,2.93
2022-08-24T03:38:05.290Z,4.00
2022-08-24T03:40:23.172Z,3.80
2022-08-24T03:42:29.615Z,4.40
2022-08-24T03:44:33.055Z,3.57
2022-08-24T03:46:38.793Z,3.70
2022-08-24T03:48:46.170Z,3.77
2022-08-24T03:50:49.651Z,3.73
2022-08-24T03:52:53.194Z,3.70
2022-08-24T03:54:57.999Z,4.70
2022-08-24T03:57:01.833Z,3.17
2022-08-24T03:59:09.202Z,4.03
2022-08-24T04:01:17.996Z,3.40
2022-08-24T04:03:21.964Z,3.30
2022-08-24T04:05:25.553Z,3.30
2022-08-24T04:07:28.985Z,3.33
2022-08-24T04:09:33.652Z,3.47
2022-08-24T04:11:41.303Z,3.50
2022-08-24T04:13:46.761Z,3.10
2022-08-24T04:15:53.054Z,3.63
2022-08-24T04:17:59.269Z,4.10
2022-08-24T04:20:08.855Z,3.70
2022-08-24T04:22:16.560Z,4.43
2022-08-24T04:24:20.630Z,3.83
2022-08-24T04:26:45.809Z,3.90
2022-08-24T04:28:54.754Z,3.70
2022-08-24T04:30:58.549Z,4.13
2022-08-24T04:33:08.552Z,4.07
2022-08-24T04:35:12.578Z,3.33
2022-08-24T04:37:17.689Z,3.10
2022-08-24T04:39:26.303Z,3.67
2022-08-24T04:41:50.454Z,3.50
2022-08-24T04:43:56.797Z,3.20
2022-08-24T04:46:00.697Z,3.73
2022-08-24T04:48:04.810Z,4.17
2022-08-24T04:50:09.283Z,3.90
2022-08-24T04:52:12.845Z,3.37
2022-08-24T04:54:18.012Z,3.90
2022-08-24T04:56:28.464Z,3.70
2022-08-24T04:58:33.605Z,3.97
2022-08-24T05:00:39.059Z,4.10
2022-08-24T05:02:45.018Z,3.80
2022-08-24T05:04:49.718Z,4.87
2022-08-24T05:06:54.391Z,4.90
2022-08-24T05:08:58.852Z,4.13
2022-08-24T05:11:06.950Z,4.20
2022-08-24T05:13:11.032Z,4.33
2022-08-24T05:15:16.322Z,4.30
2022-08-24T05:17:22.485Z,3.37
2022-08-24T05:19:26.274Z,3.63
2022-08-24T05:21:30.903Z,3.60
2022-08-24T05:23:35.517Z,3.70
2022-08-24T05:25:39.531Z,3.20
2022-08-24T05:27:42.919Z,4.27
2022-08-24T05:29:46.587Z,4.77
2022-08-24T05:31:50.919Z,3.60
2022-08-24T05:33:56.508Z,3.83
2022-08-24T05:35:59.946Z,4.27
2022-08-24T05:38:03.362Z,3.00
2022-08-24T05:40:15.645Z,3.27
2022-08-24T05:42:21.789Z,3.70
2022-08-24T05:44:29.213Z,3.30
2022-08-24T05:46:36.190Z,3.00
2022-08-24T05:48:40.657Z,4.90
2022-08-24T05:50:45.665Z,5.53
2022-08-24T05:52:50.399Z,4.90
2022-08-24T05:54:55.179Z,4.17
2022-08-24T05:57:04.388Z,3.50
2022-08-24T05:59:16.729Z,3.43
2022-08-24T06:01:23.591Z,3.63
2022-08-24T06:03:28.473Z,3.80
2022-08-24T06:05:32.386Z,4.03
2022-08-24T06:07:37.272Z,4.47
2022-08-24T06:09:41.541Z,4.40
2022-08-24T06:11:47.523Z,4.87
2022-08-24T06:13:55.514Z,5.30
2022-08-24T06:16:20.806Z,4.50
2022-08-24T06:18:25.926Z,5.33
2022-08-24T06:20:29.531Z,4.40
2022-08-24T06:22:34.021Z,3.87
2022-08-24T06:24:58.889Z,3.43
2022-08-24T06:27:21.187Z,3.77
2022-08-24T06:29:25.213Z,3.43
2022-08-24T06:31:39.774Z,3.40
2022-08-24T06:33:47.871Z,3.80
2022-08-24T06:35:51.643Z,4.20
2022-08-24T06:37:56.485Z,3.60
2022-08-24T06:40:02.207Z,3.17
2022-08-24T06:42:07.119Z,2.90
2022-08-24T06:44:10.596Z,3.30
2022-08-24T06:46:43.639Z,3.40
2022-08-24T06:48:47.314Z,3.50
2022-08-24T06:50:51.424Z,3.50
2022-08-24T06:52:54.873Z,3.30
2022-08-24T06:55:02.435Z,3.87
2022-08-24T06:57:07.870Z,3.73
2022-08-24T06:59:11.330Z,3.57
2022-08-24T07:01:17.034Z,2.57
2022-08-24T07:03:20.989Z,3.20
2022-08-24T07:05:31.739Z,3.10
2022-08-24T07:07:54.882Z,2.83
2022-08-24T07:09:58.450Z,3.30
2022-08-24T07:12:03.494Z,3.37
2022-08-24T07:14:07.366Z,3.80
2022-08-24T07:16:11.022Z,3.90
2022-08-24T07:18:16.758Z,3.80
2022-08-24T07:20:24.966Z,3.20
2022-08-24T07:22:54.492Z,3.57
2022-08-24T07:24:57.917Z,3.73
2022-08-24T07:27:02.810Z,3.60
2022-08-24T07:29:30.363Z,4.10
2022-08-24T07:31:35.765Z,4.33
2022-08-24T07:34:01.435Z,3.93
2022-08-24T07:36:06.043Z,4.13
2022-08-24T07:38:09.858Z,3.80
2022-08-24T07:40:14.970Z,3.50
2022-08-24T07:42:28.248Z,4.50
2022-08-24T07:44:36.385Z,4.40
2022-08-24T07:46:42.437Z,4.00
2022-08-24T07:48:48.607Z,4.00
2022-08-24T07:50:56.344Z,3.40
2022-08-24T07:53:01.479Z,3.80
2022-08-24T07:55:07.048Z,3.67
2022-08-24T07:57:11.694Z,3.23
2022-08-24T07:59:16.510Z,4.20
2022-08-24T08:01:21.881Z,3.57
2022-08-24T08:03:27.260Z,3.27
2022-08-24T08:05:30.975Z,3.83
2022-08-24T08:07:34.731Z,3.87
2022-08-24T08:09:38.913Z,3.50
2022-08-24T08:11:44.624Z,3.23
2022-08-24T08:13:48.192Z,3.93
2022-08-24T08:15:56.742Z,3.30
2022-08-24T08:18:03.354Z,3.53
2022-08-24T08:20:10.083Z,4.50
2022-08-24T08:22:31.559Z,3.37
2022-08-24T08:24:53.884Z,3.83
2022-08-24T08:26:59.344Z,3.40
2022-08-24T08:29:05.281Z,3.60
2022-08-24T08:31:14.022Z,3.77
2022-08-24T08:33:17.651Z,4.07
2022-08-24T08:35:21.326Z,3.93
2022-08-24T08:37:26.187Z,3.40
2022-08-24T08:39:30.134Z,3.63
2022-08-24T08:41:58.647Z,4.13
2022-08-24T08:44:15.790Z,4.97
2022-08-24T08:46:40.660Z,7.87
2022-08-24T08:49:28.171Z,5.70
2022-08-24T08:52:10.330Z,4.00
2022-08-24T08:54:43.859Z,3.73
2022-08-24T08:57:05.193Z,3.43
2022-08-24T08:59:18.722Z,4.40
2022-08-24T09:01:46.950Z,3.83
2022-08-24T09:04:27.952Z,3.70
2022-08-24T09:06:57.243Z,3.80
2022-08-24T09:09:26.765Z,4.30
2022-08-24T09:11:41.667Z,3.87
2022-08-24T09:14:12.735Z,3.40
2022-08-24T09:16:44.655Z,3.07
2022-08-24T09:19:00.005Z,4.27
2022-08-24T09:21:16.750Z,3.40
2022-08-24T09:23:30.476Z,3.10
2022-08-24T09:25:43.341Z,4.20
2022-08-24T09:28:14.841Z,3.40
2022-08-24T09:30:22.040Z,3.77
2022-08-24T09:32:37.501Z,3.43
2022-08-24T09:34:57.028Z,3.60
2022-08-24T09:37:16.509Z,3.93
2022-08-24T09:39:53.235Z,3.53
2022-08-24T09:42:36.143Z,4.17
2022-08-24T09:44:57.432Z,4.30
2022-08-24T09:47:35.693Z,4.50
2022-08-24T09:50:09.848Z,3.53
2022-08-24T09:52:33.671Z,3.30
2022-08-24T09:55:27.770Z,4.07
2022-08-24T09:58:00.027Z,3.40
2022-08-24T10:00:14.326Z,3.70
2022-08-24T10:02:35.103Z,3.10
2022-08-24T10:04:45.314Z,3.50
2022-08-24T10:07:00.990Z,4.23
2022-08-24T10:09:27.658Z,4.87
2022-08-24T10:11:40.694Z,5.00
2022-08-24T10:13:55.460Z,3.77
2022-08-24T10:16:17.961Z,3.83
2022-08-24T10:18:35.473Z,5.37
2022-08-24T10:20:54.944Z,3.93
2022-08-24T10:23:33.300Z,3.13
2022-08-24T10:25:41.159Z,3.10
2022-08-24T10:27:58.798Z,3.10
2022-08-24T10:30:23.567Z,3.07
2022-08-24T10:32:47.428Z,3.33
2022-08-24T10:35:03.218Z,3.40
2022-08-24T10:37:32.330Z,3.23
2022-08-24T10:40:01.851Z,3.70
2022-08-24T10:43:02.060Z,3.87
2022-08-24T10:45:26.046Z,4.43
2022-08-24T10:47:31.325Z,3.43
2022-08-24T10:50:19.140Z,3.60
2022-08-24T10:52:54.058Z,3.43
2022-08-24T10:55:13.693Z,3.30
2022-08-24T10:57:25.006Z,3.53
2022-08-24T10:59:35.171Z,2.97
2022-08-24T11:01:41.223Z,3.20
2022-08-24T11:03:54.317Z,3.23
2022-08-24T11:05:58.536Z,3.03
2022-08-24T11:08:05.729Z,3.77
2022-08-24T11:10:11.264Z,3.97
2022-08-24T11:12:22.748Z,4.03
2022-08-24T11:14:30.370Z,2.70
2022-08-24T11:16:38.990Z,3.70
2022-08-24T11:18:54.304Z,4.40
2022-08-24T11:21:00.516Z,3.77
2022-08-24T11:23:07.842Z,3.07
2022-08-24T11:25:20.057Z,2.83
2022-08-24T11:27:30.890Z,1.77
2022-08-24T11:29:56.297Z,1.77
2022-08-24T11:32:00.280Z,2.73
2022-08-24T11:34:07.971Z,2.30
2022-08-24T11:36:20.981Z,2.50
2022-08-24T11:38:27.698Z,2.47
2022-08-24T11:40:37.504Z,2.00
2022-08-24T11:43:06.074Z,2.17
2022-08-24T11:45:17.269Z,2.77
2022-08-24T11:47:45.968Z,2.60
2022-08-24T11:49:56.111Z,2.20
2022-08-24T11:52:12.254Z,2.13
2022-08-24T11:54:26.320Z,1.97
2022-08-24T11:56:42.319Z,2.10
2022-08-24T11:58:56.063Z,2.10
2022-08-24T12:01:06.078Z,2.00
2022-08-24T12:03:24.093Z,3.20
2022-08-24T12:05:35.143Z,2.00
2022-08-24T12:07:51.157Z,2.20
2022-08-24T12:10:21.926Z,1.97
2022-08-24T12:12:36.034Z,2.10
2022-08-24T12:14:44.965Z,2.13
2022-08-24T12:16:55.915Z,2.23
2022-08-24T12:19:04.047Z,2.40
2022-08-24T12:21:12.780Z,2.23
2022-08-24T12:23:21.798Z,2.10
2022-08-24T12:25:45.769Z,2.40
2022-08-24T12:27:52.917Z,2.10
2022-08-24T12:30:05.355Z,2.20
2022-08-24T12:32:13.030Z,2.27
2022-08-24T12:34:22.379Z,2.37
2022-08-24T12:36:31.466Z,2.60
2022-08-24T12:38:40.731Z,2.30
2022-08-24T12:40:48.374Z,2.23
2022-08-24T12:42:56.382Z,2.40
2022-08-24T12:45:03.215Z,2.57
2022-08-24T12:47:07.307Z,2.50
2022-08-24T12:49:19.300Z,2.17
2022-08-24T12:51:27.644Z,2.27
2022-08-24T12:53:52.859Z,2.37
2022-08-24T12:56:20.894Z,2.73
2022-08-24T12:58:54.521Z,2.43
2022-08-24T13:01:03.941Z,3.10
2022-08-24T13:03:24.821Z,2.67
2022-08-24T13:05:41.347Z,2.70
2022-08-24T13:07:48.692Z,2.37
2022-08-24T13:10:11.965Z,2.40
2022-08-24T13:13:09.326Z,2.30
2022-08-24T13:15:29.290Z,2.30
2022-08-24T13:17:42.738Z,2.17
2022-08-24T13:19:49.365Z,2.80
2022-08-24T13:21:57.207Z,2.60
2022-08-24T13:24:41.871Z,2.40
2022-08-24T13:26:45.355Z,3.00
2022-08-24T13:28:55.618Z,2.60
2022-08-24T13:31:25.571Z,2.40
2022-08-24T13:33:34.808Z,2.97
2022-08-24T13:35:56.665Z,8.47
2022-08-24T13:38:42.694Z,3.13
2022-08-24T13:40:52.728Z,2.70
2022-08-24T13:43:18.529Z,2.37
2022-08-24T13:45:37.432Z,2.33
2022-08-24T13:47:57.456Z,2.30
2022-08-24T13:50:09.330Z,1.80
2022-08-24T13:52:22.378Z,2.60
2022-08-24T13:54:37.156Z,3.13
2022-08-24T13:57:07.267Z,2.03
2022-08-24T13:59:16.596Z,2.80
2022-08-24T14:01:30.599Z,2.30
2022-08-24T14:04:04.564Z,2.40
2022-08-24T14:06:24.553Z,2.13
2022-08-24T14:08:42.046Z,3.07
2022-08-24T14:10:56.988Z,2.40
2022-08-24T14:13:07.700Z,2.67
2022-08-24T14:15:32.959Z,2.70
2022-08-24T14:17:54.147Z,2.70
2022-08-24T14:20:06.830Z,2.47
2022-08-24T14:22:23.144Z,2.23
2022-08-24T14:24:32.451Z,2.40
2022-08-24T14:27:01.533Z,2.50
2022-08-24T14:29:28.662Z,2.40
2022-08-24T14:31:32.832Z,2.83
2022-08-24T14:33:45.240Z,2.27
2022-08-24T14:36:09.617Z,2.40
2022-08-24T14:38:26.297Z,2.47
2022-08-24T14:40:35.007Z,2.10
2022-08-24T14:42:44.680Z,2.20
2022-08-24T14:45:03.629Z,2.47
2022-08-24T14:47:14.942Z,2.37
2022-08-24T14:49:26.262Z,2.30
2022-08-24T14:51:47.889Z,2.77
2022-08-24T14:54:01.990Z,3.47
2022-08-24T14:56:15.185Z,2.50
2022-08-24T14:58:30.336Z,3.07
2022-08-24T15:00:53.953Z,2.97
2022-08-24T15:03:12.997Z,2.80
2022-08-24T15:05:23.858Z,3.13
2022-08-24T15:07:31.856Z,2.67
2022-08-24T15:09:37.969Z,2.40
2022-08-24T15:11:42.586Z,2.30
2022-08-24T15:13:53.776Z,2.33
2022-08-24T15:16:04.454Z,2.43
2022-08-24T15:18:24.554Z,2.43
2022-08-24T15:20:45.317Z,3.03
2022-08-24T15:22:59.438Z,2.83
2022-08-24T15:25:08.483Z,2.77
2022-08-24T15:27:22.196Z,2.10
2022-08-24T15:29:31.045Z,2.97
2022-08-24T15:31:35.133Z,2.50
2022-08-24T15:33:53.776Z,2.27
2022-08-24T15:36:10.532Z,2.60
2022-08-24T15:38:21.149Z,2.43
2022-08-24T15:40:29.901Z,2.60
2022-08-24T15:42:37.053Z,2.23
2022-08-24T15:44:43.086Z,2.40
2022-08-24T15:46:50.845Z,2.50
2022-08-24T15:49:00.397Z,2.30
2022-08-24T15:51:03.964Z,2.43
2022-08-24T15:53:11.357Z,2.23
2022-08-24T15:55:34.342Z,3.20
2022-08-24T15:57:41.464Z,2.53
2022-08-24T15:59:50.842Z,2.73
2022-08-24T16:02:16.687Z,2.47
2022-08-24T16:04:40.746Z,2.93
2022-08-24T16:06:46.153Z,2.13
2022-08-24T16:09:02.928Z,2.80
2022-08-24T16:11:22.535Z,2.77
2022-08-24T16:13:29.311Z,2.60
2022-08-24T16:15:33.561Z,2.40
2022-08-24T16:17:41.341Z,2.30
2022-08-24T16:19:52.083Z,2.40
2022-08-24T16:22:01.076Z,2.53
2022-08-24T16:24:08.419Z,2.00
2022-08-24T16:26:28.864Z,2.47
2022-08-24T16:28:38.071Z,2.40
2022-08-24T16:30:49.887Z,2.63
2022-08-24T16:32:55.868Z,2.23
2022-08-24T16:35:19.619Z,2.43
2022-08-24T16:37:25.159Z,2.60
2022-08-24T16:39:28.671Z,2.87
2022-08-24T16:41:33.411Z,3.00
2022-08-24T16:43:38.311Z,2.43
2022-08-24T16:45:42.643Z,2.30
2022-08-24T16:47:46.958Z,2.20
2022-08-24T16:49:51.475Z,2.30
2022-08-24T16:51:54.865Z,2.40
2022-08-24T16:53:58.302Z,2.37
2022-08-24T16:56:04.229Z,2.43
2022-08-24T16:58:09.063Z,2.60
2022-08-24T17:00:17.536Z,2.67
2022-08-24T17:02:22.662Z,3.17
2022-08-24T17:04:26.575Z,2.13
2022-08-24T17:06:31.633Z,2.80
2022-08-24T17:08:35.104Z,2.03
2022-08-24T17:10:38.522Z,2.40
2022-08-24T17:12:42.048Z,2.60
2022-08-24T17:14:46.893Z,2.60
2022-08-24T17:16:51.777Z,2.40
2022-08-24T17:18:55.303Z,2.87
2022-08-24T17:21:01.220Z,2.93
2022-08-24T17:23:04.999Z,2.50
2022-08-24T17:25:09.032Z,2.37
2022-08-24T17:27:13.485Z,2.90
2022-08-24T17:29:18.611Z,2.53
2022-08-24T17:31:24.979Z,3.00
2022-08-24T17:33:28.524Z,2.53
2022-08-24T17:35:31.972Z,2.40
2022-08-24T17:37:35.618Z,2.00
2022-08-24T17:39:39.135Z,2.83
2022-08-24T17:41:42.707Z,3.60
2022-08-24T17:43:46.348Z,3.10
2022-08-24T17:45:49.804Z,3.40
2022-08-24T17:47:55.104Z,2.93
2022-08-24T17:50:01.730Z,2.57
2022-08-24T17:52:07.709Z,2.67
2022-08-24T17:54:11.136Z,2.60
2022-08-24T17:56:15.971Z,2.73
2022-08-24T17:58:19.434Z,2.97
2022-08-24T18:00:23.154Z,3.30
2022-08-24T18:02:26.790Z,3.13
2022-08-24T18:04:33.695Z,3.33
2022-08-24T18:06:37.240Z,3.70
2022-08-24T18:08:40.716Z,3.20
2022-08-24T18:10:44.157Z,3.90
2022-08-24T18:12:47.994Z,3.33
2022-08-24T18:14:52.328Z,3.20
2022-08-24T18:16:57.320Z,2.80
2022-08-24T18:19:02.582Z,2.83
2022-08-24T18:21:07.622Z,3.83
2022-08-24T18:23:11.354Z,2.73
2022-08-24T18:25:17.719Z,3.27
2022-08-24T18:27:26.450Z,3.00
2022-08-24T18:29:33.548Z,2.87
2022-08-24T18:31:37.842Z,3.20
2022-08-24T18:33:41.563Z,3.03
2022-08-24T18:35:45.638Z,3.33
2022-08-24T18:37:50.733Z,3.67
2022-08-24T18:39:54.233Z,12.07
2022-08-24T18:42:00.277Z,5.30
2022-08-24T18:44:05.636Z,5.87
2022-08-24T18:46:09.688Z,12.67
2022-08-24T18:48:13.199Z,10.37
2022-08-24T18:50:16.823Z,8.57
2022-08-24T18:52:20.541Z,7.70
2022-08-24T18:54:27.629Z,6.57
2022-08-24T18:56:31.014Z,5.30
2022-08-24T18:58:34.497Z,5.10
2022-08-24T19:00:37.988Z,6.07
2022-08-24T19:02:41.714Z,4.93
2022-08-24T19:04:47.836Z,4.17
2022-08-24T19:06:51.939Z,4.17
2022-08-24T19:08:55.374Z,4.47
2022-08-24T19:11:00.175Z,3.63
2022-08-24T19:13:07.365Z,4.10
2022-08-24T19:15:32.379Z,3.87
2022-08-24T19:17:35.305Z,4.70
2022-08-24T19:19:38.718Z,3.70
2022-08-24T19:21:42.474Z,3.77
2022-08-24T19:23:47.209Z,4.00
2022-08-24T19:25:51.368Z,3.83
2022-08-24T19:27:56.278Z,4.13
2022-08-24T19:29:59.855Z,4.43
2022-08-24T19:32:03.787Z,3.80
2022-08-24T19:34:08.509Z,3.37
2022-08-24T19:36:12.142Z,3.47
2022-08-24T19:38:16.639Z,3.87
2022-08-24T19:40:21.538Z,3.70
2022-08-24T19:42:25.663Z,2.90
2022-08-24T19:44:51.783Z,3.30
2022-08-24T19:46:55.722Z,3.30
2022-08-24T19:48:59.621Z,3.27
2022-08-24T19:51:04.470Z,2.93
2022-08-24T19:53:10.317Z,4.10
2022-08-24T19:55:14.352Z,3.10
2022-08-24T19:57:37.401Z,3.47
2022-08-24T19:59:43.021Z,3.03
2022-08-24T20:01:46.564Z,4.00
2022-08-24T20:03:50.228Z,4.50
2022-08-24T20:05:54.059Z,4.00
2022-08-24T20:07:57.884Z,3.73
2022-08-24T20:10:13.018Z,4.20
2022-08-24T20:12:16.687Z,3.87
2022-08-24T20:14:20.108Z,4.00
2022-08-24T20:16:29.647Z,3.60
2022-08-24T20:18:35.032Z,3.57
2022-08-24T20:20:39.048Z,3.37
2022-08-24T20:22:42.527Z,3.60
2022-08-24T20:24:48.115Z,3.53
2022-08-24T20:26:51.667Z,4.00
2022-08-24T20:28:58.877Z,4.00
2022-08-24T20:31:02.518Z,3.73
2022-08-24T20:33:14.172Z,3.90
2022-08-24T20:35:17.716Z,3.40
2022-08-24T20:37:24.440Z,6.10
2022-08-24T20:39:29.077Z,12.50
2022-08-24T20:41:32.455Z,5.80
2022-08-24T20:43:35.904Z,6.80
2022-08-24T20:45:39.881Z,5.37
2022-08-24T20:47:48.583Z,4.63
2022-08-24T20:49:53.718Z,5.70
2022-08-24T20:51:57.168Z,4.90
2022-08-24T20:54:01.810Z,4.10
2022-08-24T20:56:10.115Z,4.10
2022-08-24T20:58:15.437Z,3.90
2022-08-24T21:00:20.419Z,3.60
2022-08-24T21:02:23.843Z,5.53
2022-08-24T21:04:27.205Z,3.73
2022-08-24T21:06:34.673Z,3.83
2022-08-24T21:08:38.194Z,4.60
2022-08-24T21:10:42.215Z,4.23
2022-08-24T21:12:45.988Z,4.60
2022-08-24T21:14:49.442Z,4.30
2022-08-24T21:16:58.376Z,3.93
2022-08-24T21:19:01.844Z,3.87
2022-08-24T21:21:05.640Z,4.10
2022-08-24T21:23:10.861Z,3.60
2022-08-24T21:25:15.487Z,3.73
2022-08-24T21:27:19.640Z,3.73
2022-08-24T21:29:23.682Z,3.27
2022-08-24T21:31:28.176Z,4.67
2022-08-24T21:33:49.359Z,3.40
2022-08-24T21:35:53.830Z,3.57
2022-08-24T21:37:59.019Z,3.43
2022-08-24T21:40:05.409Z,3.60
2022-08-24T21:42:09.549Z,3.30
2022-08-24T21:44:12.923Z,3.90
2022-08-24T21:46:17.127Z,3.53
2022-08-24T21:48:21.175Z,3.63
2022-08-24T21:50:25.868Z,3.97
2022-08-24T21:52:31.100Z,3.30
2022-08-24T21:54:36.222Z,3.53
2022-08-24T21:56:41.361Z,3.30
2022-08-24T21:58:45.490Z,3.60
2022-08-24T22:00:48.895Z,3.17
2022-08-24T22:02:52.547Z,3.13
2022-08-24T22:04:56.685Z,3.57
2022-08-24T22:07:02.339Z,3.40
2022-08-24T22:09:06.878Z,3.10
2022-08-24T22:11:11.295Z,2.97
2022-08-24T22:13:16.170Z,2.87
2022-08-24T22:15:23.215Z,3.30
2022-08-24T22:17:26.948Z,3.07
2022-08-24T22:19:30.447Z,3.30
2022-08-24T22:21:35.745Z,2.97
2022-08-24T22:23:40.946Z,2.93
2022-08-24T22:25:44.517Z,3.40
2022-08-24T22:27:48.294Z,3.10
2022-08-24T22:29:54.194Z,3.50
2022-08-24T22:31:57.641Z,3.13
2022-08-24T22:34:03.049Z,4.13
2022-08-24T22:36:10.440Z,6.17
2022-08-24T22:38:14.034Z,5.00
2022-08-24T22:40:19.024Z,4.20
2022-08-24T22:42:22.730Z,2.87
2022-08-24T22:44:27.737Z,2.60
2022-08-24T22:46:32.605Z,2.90
2022-08-24T22:48:36.809Z,2.90
2022-08-24T22:50:43.764Z,2.73
2022-08-24T22:52:47.288Z,3.07
2022-08-24T22:54:50.823Z,4.10
2022-08-24T22:56:56.268Z,3.30
2022-08-24T22:58:59.885Z,2.60
2022-08-24T23:01:03.326Z,2.87
2022-08-24T23:03:08.139Z,2.37
2022-08-24T23:05:11.634Z,2.53
2022-08-24T23:07:15.653Z,2.90
2022-08-24T23:09:19.748Z,2.73
2022-08-24T23:11:26.791Z,2.67
2022-08-24T23:13:30.430Z,2.60
2022-08-24T23:15:33.895Z,2.23
2022-08-24T23:17:37.404Z,3.07
2022-08-24T23:19:59.771Z,2.73
2022-08-24T23:22:03.790Z,2.60
2022-08-24T23:24:09.067Z,2.43
2022-08-24T23:26:18.143Z,2.73
2022-08-24T23:28:22.007Z,2.57
2022-08-24T23:30:25.435Z,2.73
2022-08-24T23:32:28.917Z,2.77
2022-08-24T23:34:32.687Z,2.83
2022-08-24T23:36:38.353Z,2.43
2022-08-24T23:38:42.369Z,3.10
2022-08-24T23:40:45.810Z,2.80
2022-08-24T23:42:49.311Z,2.37
2022-08-24T23:44:52.782Z,3.20
2022-08-24T23:46:57.927Z,2.70
2022-08-24T23:49:03.461Z,2.50
2022-08-24T23:51:09.521Z,2.60
2022-08-24T23:53:15.421Z,2.87
2022-08-24T23:55:21.324Z,3.00
2022-08-24T23:57:25.531Z,2.17
2022-08-24T23:59:30.353Z,2.73
